< < Back
Terminal Aerodrome Forecast


Current Version              Previous Versions:   1  2  3  4  5  6  7  8  9  

Terminal Aerodrome Forecast

540
FTUS44 KMRX 301720
TAFCHA
TAF
KCHA 301720Z 3018/0118 01005KT P6SM SCT250
     FM010600 00000KT P6SM SKC
     FM011500 VRB03KT P6SM SKC=

Latest METAR

257
SAUS80 KWBC 301900 RRD
MTRCHA
METAR KCHA 301853Z 28004KT 10SM FEW090 33/08 A2997 RMK AO2 SLP139
T03280083


USA.gov is the U.S. government's official web portal to all federal, state and local government web resources and services.